バンクーバー の空港の天気 - METARとTAF

バンクーバー国際空港 ( CYVR / YVR ) - カナダ ブリティッシュコロンビア州バンクーバー
飛行場実況気象(Metar)
観測時間07/21 18:00 PDT (07/22 01:00 UTC)
風向・風速西北西 3m/s
視程10km以上
天気現象
少しの雲 雲底高度 1680m
少しの雲 雲底高度 3050m
少しの雲 雲底高度 7010m
少しの雲 雲底高度 7620m
気温27℃
湿度58%
気圧1013.5hPa
METARCYVR 220100Z 30005KT 30SM FEW055 FEW100 FEW230 FEW250 27/18 A2993 RMK CF1AC1CC1CS2 CF TR AC TR CC TR SLP135 DENSITY ALT 1500FT
過去の天気等 Google飛行場航空写真 Wunderground天気予報

過去48時間のMETAR

飛行場予報(TAF)
発表時間: 7/21 16:38 PDT (7/21 23:38 UTC)
予報対象時間: 21日17時 PDT ~ 22日23時 PDT
風向・風速南西 3m/s
視程10km以上
少しの雲 雲底高度 3050m
少しの雲 雲底高度 7010m
22日1時 PDT ~ 22日3時 PDT に徐々に
風向・風速東 5m/s
22日5時 PDT から
風向・風速東 5m/s
視程10km以上
全天の4割程度の雲 雲底高度 3050m
22日13時 PDT ~ 22日15時 PDT に徐々に
風向・風速南南東 5m/s
22日21時 PDT ~ 22日23時 PDT に徐々に
風向・風速東 5m/s
TAF CYVR 212338Z 2200/2306 23005KT P6SM FEW100 FEW230
BECMG 2208/2210 10010KT
FM221200 10010KT P6SM SCT100
BECMG 2220/2222 15010KT
BECMG 2304/2306 10010KT RMK NXT FCST BY 220300Z